Time;durP1;ratioP1;P1;durP2;ratioP2;P2;SDS_P1;SDS_P2;PMS_P1;PMS_P2;Temp;Humidity;BMP_temperature;BMP_pressure;BME280_temperature;BME280_humidity;BME280_pressure;Samples;Min_cycle;Max_cycle;Signal;HPM_P1;HPM_P2
2023/01/17 00:02:29;;;;;;;3.80;2.15;;;6.70;78.70;;;;;;5051751;28;20043;-52
2023/01/17 00:10:40;;;;;;;5.97;3.58;;;6.70;79.00;;;;;;5050953;28;20155;-48
2023/01/17 00:13:09;;;;;;;5.75;4.15;;;6.70;79.00;;;;;;5050607;28;20045;-49
2023/01/17 00:15:38;;;;;;;4.82;2.80;;;6.80;78.90;;;;;;5038909;28;20052;-50
2023/01/17 00:18:16;;;;;;;4.20;3.05;;;6.80;78.90;;;;;;5051005;28;20068;-51
2023/01/17 00:26:14;;;;;;;5.38;1.65;;;6.80;78.40;;;;;;5048198;28;20420;-53
2023/01/17 01:33:51;;;;;;;2.35;1.10;;;6.30;79.10;;;;;;5050197;28;20066;-50
2023/01/17 01:36:19;;;;;;;3.65;1.30;;;6.30;78.90;;;;;;5041282;28;20041;-50
2023/01/17 01:38:49;;;;;;;2.95;1.45;;;6.30;78.80;;;;;;5045927;28;20564;-49
2023/01/17 01:41:16;;;;;;;5.07;2.05;;;6.30;78.80;;;;;;5031536;28;20529;-51
2023/01/17 01:43:49;;;;;;;4.35;2.20;;;6.20;78.80;;;;;;5050018;28;20040;-51
2023/01/17 01:46:35;;;;;;;2.05;1.83;;;6.30;78.90;;;;;;5049235;28;20060;-50
2023/01/17 01:49:05;;;;;;;4.25;1.80;;;6.30;78.90;;;;;;5039903;28;20405;-50
2023/01/17 01:51:49;;;;;;;2.47;1.60;;;6.30;78.80;;;;;;5043726;28;20041;-53
2023/01/17 01:54:30;;;;;;;3.50;1.77;;;6.30;78.80;;;;;;5049330;28;20545;-52
2023/01/17 01:57:05;;;;;;;4.45;1.95;;;6.20;78.70;;;;;;5049631;28;20112;-52
2023/01/17 01:59:33;;;;;;;3.33;2.58;;;6.20;78.70;;;;;;5030799;28;20153;-48
2023/01/17 02:02:00;;;;;;;6.13;3.78;;;6.20;78.70;;;;;;5049392;28;20047;-50
2023/01/17 02:04:27;;;;;;;7.38;4.63;;;6.20;78.70;;;;;;5048971;28;20037;-48
2023/01/17 02:07:13;;;;;;;5.15;4.35;;;6.20;78.80;;;;;;5047096;28;20051;-50
2023/01/17 02:09:41;;;;;;;5.05;4.03;;;6.20;78.90;;;;;;5041350;28;20132;-52
2023/01/17 02:12:11;;;;;;;6.25;4.53;;;6.30;78.90;;;;;;5049489;28;20045;-52
2023/01/17 02:14:38;;;;;;;4.90;3.50;;;6.20;78.90;;;;;;5048849;28;20690;-53
2023/01/17 02:17:18;;;;;;;6.88;3.00;;;6.20;78.90;;;;;;5027227;28;20128;-49
2023/01/17 02:20:20;;;;;;;3.45;2.95;;;6.20;78.90;;;;;;5044227;28;20048;-48
2023/01/17 02:23:35;;;;;;;3.90;2.90;;;6.20;78.90;;;;;;5044179;28;20048;-51
2023/01/17 02:26:13;;;;;;;7.57;4.30;;;6.20;78.60;;;;;;4968372;28;20175;-51
2023/01/17 02:29:04;;;;;;;7.35;4.57;;;6.20;78.10;;;;;;5038626;28;20076;-47
2023/01/17 02:31:52;;;;;;;7.43;5.22;;;6.20;78.00;;;;;;5042298;28;20048;-52
2023/01/17 02:34:46;;;;;;;6.63;4.20;;;6.10;78.00;;;;;;5049052;28;20120;-52
2023/01/17 02:37:24;;;;;;;5.75;4.22;;;6.00;78.60;;;;;;5044705;28;20573;-49
2023/01/17 02:40:09;;;;;;;5.85;3.72;;;6.00;77.90;;;;;;5049629;28;20689;-52
2023/01/17 02:42:49;;;;;;;5.13;4.63;;;6.00;78.00;;;;;;5047388;28;20045;-50
2023/01/17 02:45:17;;;;;;;5.72;4.47;;;5.90;78.00;;;;;;5042383;28;20060;-52
2023/01/17 02:47:44;;;;;;;6.93;6.20;;;5.90;78.00;;;;;;5050062;28;20044;-51
2023/01/17 02:50:18;;;;;;;7.82;6.57;;;5.90;78.00;;;;;;5052694;28;20470;-49
2023/01/17 02:52:59;;;;;;;6.18;5.57;;;5.80;78.00;;;;;;5053883;28;20051;-51
2023/01/17 02:55:59;;;;;;;7.05;5.50;;;5.80;77.90;;;;;;5025313;28;20160;-49
2023/01/17 02:58:44;;;;;;;6.57;5.57;;;5.80;77.90;;;;;;5045172;28;20051;-51
2023/01/17 03:01:18;;;;;;;5.93;5.35;;;5.80;77.80;;;;;;5052046;28;20557;-50
2023/01/17 03:03:56;;;;;;;5.03;4.53;;;5.70;77.70;;;;;;5047257;28;20056;-50
2023/01/17 03:06:35;;;;;;;4.47;3.72;;;5.70;77.90;;;;;;5052244;28;20410;-51
2023/01/17 03:09:05;;;;;;;5.25;3.40;;;5.60;78.00;;;;;;5052942;28;20057;-52
2023/01/17 03:11:32;;;;;;;3.50;3.20;;;5.60;78.00;;;;;;5052749;28;20544;-52
2023/01/17 03:13:59;;;;;;;4.20;2.80;;;5.60;78.20;;;;;;5045988;28;20041;-48
2023/01/17 03:16:30;;;;;;;2.45;1.92;;;5.60;78.30;;;;;;5044561;28;20501;-48
2023/01/17 03:19:02;;;;;;;2.25;1.95;;;5.60;78.30;;;;;;5052920;28;20051;-48
2023/01/17 03:21:30;;;;;;;1.77;1.63;;;5.60;78.50;;;;;;5042063;28;20029;-47
2023/01/17 03:24:04;;;;;;;1.95;1.85;;;5.60;78.40;;;;;;5049657;28;20128;-51
2023/01/17 03:26:31;;;;;;;;;;;5.60;78.50;;;;;;5049184;28;20037;-52
2023/01/17 03:28:57;;;;;;;1.98;1.88;;;5.70;79.00;;;;;;5044227;28;19956;-50
2023/01/17 03:31:24;;;;;;;3.63;2.40;;;5.60;78.30;;;;;;5034688;28;20041;-52
2023/01/17 03:33:55;;;;;;;4.38;2.92;;;5.70;78.40;;;;;;5052861;28;20037;-51
2023/01/17 03:36:24;;;;;;;2.80;2.33;;;5.60;78.50;;;;;;5049163;28;20040;-50
2023/01/17 03:38:51;;;;;;;4.43;3.00;;;5.60;78.40;;;;;;5050385;28;20129;-50
2023/01/17 03:41:18;;;;;;;3.40;3.10;;;5.60;78.40;;;;;;5050755;28;20052;-52
2023/01/17 03:43:47;;;;;;;3.53;2.72;;;5.70;78.50;;;;;;5049765;28;20099;-51
2023/01/17 03:46:21;;;;;;;4.68;3.03;;;5.70;78.40;;;;;;5052036;28;20051;-49
2023/01/17 03:48:53;;;;;;;3.80;3.13;;;5.70;78.40;;;;;;5052318;28;20036;-51
2023/01/17 03:51:20;;;;;;;4.47;3.55;;;5.70;78.40;;;;;;5049220;28;20045;-49
2023/01/17 03:53:49;;;;;;;3.45;3.00;;;5.70;78.40;;;;;;5052701;28;20049;-49
2023/01/17 03:56:26;;;;;;;5.35;3.22;;;5.70;78.40;;;;;;5051968;28;20048;-49
2023/01/17 03:58:58;;;;;;;4.53;3.70;;;5.70;78.50;;;;;;5034273;28;20057;-52
2023/01/17 04:01:27;;;;;;;8.38;3.90;;;5.70;78.50;;;;;;5039307;28;20051;-50
2023/01/17 04:03:54;;;;;;;6.72;4.13;;;5.70;78.60;;;;;;5052387;28;20049;-52
2023/01/17 04:06:24;;;;;;;6.43;4.20;;;5.60;78.50;;;;;;5051490;28;20040;-52
2023/01/17 04:08:51;;;;;;;8.68;4.68;;;5.70;78.50;;;;;;5049834;28;20038;-49
2023/01/17 04:11:28;;;;;;;10.63;7.03;;;5.70;78.50;;;;;;5050517;28;20047;-49
2023/01/17 04:13:58;;;;;;;8.57;6.55;;;5.70;78.60;;;;;;5051223;28;20055;-48
2023/01/17 04:16:29;;;;;;;5.95;5.28;;;5.70;78.50;;;;;;5051403;28;20048;-51
2023/01/17 04:19:00;;;;;;;7.70;5.95;;;5.70;78.60;;;;;;5046221;28;20198;-49
2023/01/17 04:21:31;;;;;;;5.38;4.68;;;5.70;78.50;;;;;;5043537;28;20416;-52
2023/01/17 04:24:00;;;;;;;6.97;6.28;;;5.70;78.60;;;;;;5051854;28;20140;-51
2023/01/17 04:26:27;;;;;;;8.07;5.70;;;5.70;78.60;;;;;;5051181;28;20041;-48
2023/01/17 04:28:56;;;;;;;8.45;5.22;;;5.70;78.60;;;;;;5044515;28;20497;-52
2023/01/17 04:31:25;;;;;;;8.95;6.05;;;5.70;78.60;;;;;;5051216;28;20470;-50
2023/01/17 04:33:52;;;;;;;8.50;5.22;;;5.70;78.60;;;;;;5051466;28;20041;-48
2023/01/17 04:36:19;;;;;;;7.03;4.97;;;5.70;78.60;;;;;;5049770;28;20041;-48
2023/01/17 04:38:49;;;;;;;7.07;5.65;;;5.70;78.60;;;;;;5048096;28;20052;-51
2023/01/17 04:41:16;;;;;;;6.47;5.10;;;5.70;78.50;;;;;;5051123;28;20409;-52
2023/01/17 04:43:44;;;;;;;9.73;5.60;;;5.70;78.40;;;;;;5051696;28;20045;-51
2023/01/17 04:46:13;;;;;;;6.65;5.22;;;5.70;78.20;;;;;;5045361;28;20107;-49
2023/01/17 04:48:44;;;;;;;8.98;5.60;;;5.70;78.10;;;;;;5044842;28;20091;-52
2023/01/17 04:51:11;;;;;;;7.75;5.53;;;5.70;78.10;;;;;;5032517;28;20048;-48
2023/01/17 04:53:38;;;;;;;7.13;5.43;;;5.60;78.10;;;;;;5048244;28;20056;-49
2023/01/17 04:56:04;;;;;;;8.68;6.03;;;5.60;77.90;;;;;;5048492;28;20048;-52
2023/01/17 04:58:32;;;;;;;10.93;6.10;;;5.60;77.90;;;;;;5045085;28;20044;-52
2023/01/17 05:01:02;;;;;;;9.20;6.28;;;5.60;78.00;;;;;;5050881;28;20048;-50
2023/01/17 05:03:33;;;;;;;8.68;6.00;;;5.60;77.90;;;;;;5042023;28;20086;-50
2023/01/17 05:06:03;;;;;;;7.63;5.28;;;5.50;77.70;;;;;;5048018;28;20047;-51
2023/01/17 05:08:29;;;;;;;10.30;6.55;;;5.60;77.60;;;;;;5049342;28;20041;-49
2023/01/17 05:10:56;;;;;;;9.07;5.68;;;5.50;77.40;;;;;;5048420;28;20044;-52
2023/01/17 05:13:22;;;;;;;7.32;6.00;;;5.50;77.30;;;;;;5046714;28;20033;-51
2023/01/17 05:15:49;;;;;;;9.63;5.82;;;5.40;77.20;;;;;;5041978;28;20049;-52
2023/01/17 05:18:17;;;;;;;11.88;6.55;;;5.40;77.20;;;;;;5040822;28;20037;-50
2023/01/17 05:20:44;;;;;;;9.25;6.93;;;5.30;77.00;;;;;;5036470;28;20165;-47
2023/01/17 05:23:11;;;;;;;7.90;6.18;;;5.30;76.90;;;;;;5043932;28;20045;-51
2023/01/17 05:25:43;;;;;;;11.07;6.20;;;5.20;76.80;;;;;;5044735;28;20132;-50
2023/01/17 05:28:11;;;;;;;;;;;5.20;76.80;;;;;;5040921;28;20134;-49
2023/01/17 05:30:37;;;;;;;7.50;5.57;;;5.20;77.10;;;;;;5042140;28;20397;-48
2023/01/17 05:33:04;;;;;;;9.27;6.18;;;5.10;76.60;;;;;;5039139;28;20037;-51
2023/01/17 05:35:31;;;;;;;10.88;6.78;;;5.10;76.70;;;;;;5043995;28;20056;-49
2023/01/17 05:37:58;;;;;;;9.48;6.82;;;5.00;76.70;;;;;;5044054;28;20124;-49
2023/01/17 05:40:28;;;;;;;10.93;6.47;;;4.90;76.80;;;;;;5035969;28;20073;-49
2023/01/17 05:42:56;;;;;;;10.13;6.93;;;4.90;76.90;;;;;;5039483;28;20512;-49
2023/01/17 05:45:25;;;;;;;12.10;7.65;;;4.80;77.00;;;;;;5044756;28;20124;-52
2023/01/17 05:47:53;;;;;;;13.55;7.72;;;4.80;77.10;;;;;;5048611;28;20456;-52
2023/01/17 05:50:28;;;;;;;11.52;7.47;;;4.80;77.20;;;;;;5045841;28;20048;-48
2023/01/17 05:52:58;;;;;;;13.73;7.55;;;4.70;77.20;;;;;;5042413;28;20119;-48
2023/01/17 05:55:27;;;;;;;15.45;8.32;;;4.70;77.30;;;;;;5044829;28;20041;-49
2023/01/17 05:57:54;;;;;;;12.80;6.97;;;4.70;77.30;;;;;;5048590;28;20037;-50
2023/01/17 06:00:22;;;;;;;13.45;7.93;;;4.60;77.30;;;;;;5046339;28;20047;-49
2023/01/17 06:02:51;;;;;;;17.48;8.13;;;4.60;77.40;;;;;;5045000;28;20822;-48
2023/01/17 06:05:20;;;;;;;13.32;7.70;;;4.60;77.40;;;;;;5045579;28;20137;-49
2023/01/17 06:07:46;;;;;;;13.43;7.35;;;4.60;77.50;;;;;;5046682;28;20045;-50
2023/01/17 06:10:15;;;;;;;12.73;8.60;;;4.50;77.40;;;;;;5044083;28;20039;-51
2023/01/17 06:12:43;;;;;;;13.70;8.38;;;4.50;77.40;;;;;;5043403;28;20044;-47
2023/01/17 06:15:11;;;;;;;20.05;8.43;;;4.50;77.40;;;;;;5047171;28;20156;-46
2023/01/17 06:17:38;;;;;;;13.13;8.20;;;4.50;77.50;;;;;;5048052;28;20041;-51
2023/01/17 06:20:06;;;;;;;14.45;8.35;;;4.50;77.50;;;;;;5048330;28;20481;-52
2023/01/17 06:22:33;;;;;;;11.25;8.10;;;4.50;77.50;;;;;;5044130;28;20124;-50
2023/01/17 06:25:00;;;;;;;17.15;8.60;;;4.50;77.50;;;;;;5039773;28;20055;-53
2023/01/17 06:27:27;;;;;;;14.60;9.05;;;4.40;77.40;;;;;;5037980;28;20044;-48
2023/01/17 06:29:54;;;;;;;17.27;9.20;;;4.40;77.50;;;;;;5043202;28;20055;-51
2023/01/17 06:32:20;;;;;;;17.10;9.35;;;4.40;77.60;;;;;;5042975;28;20120;-50
2023/01/17 06:34:50;;;;;;;14.48;8.70;;;4.30;77.40;;;;;;5038198;28;20064;-50
2023/01/17 06:37:17;;;;;;;12.30;7.82;;;4.30;77.30;;;;;;5039993;28;20069;-48
2023/01/17 06:39:44;;;;;;;12.30;7.68;;;4.30;77.40;;;;;;5039876;28;20045;-49
2023/01/17 06:42:10;;;;;;;11.93;7.75;;;4.30;77.40;;;;;;5045756;28;20041;-50
2023/01/17 06:44:37;;;;;;;11.45;7.50;;;4.30;77.60;;;;;;5039441;28;20096;-49
2023/01/17 06:47:04;;;;;;;13.27;8.02;;;4.20;77.40;;;;;;5047854;28;20386;-52
2023/01/17 06:49:31;;;;;;;13.00;8.40;;;4.20;77.40;;;;;;5039452;28;20370;-50
2023/01/17 06:51:57;;;;;;;16.42;9.00;;;4.20;77.40;;;;;;5041607;28;20079;-52
2023/01/17 06:54:24;;;;;;;16.73;9.30;;;4.20;77.50;;;;;;5048447;28;20068;-48
2023/01/17 06:56:51;;;;;;;13.15;9.48;;;4.20;77.40;;;;;;5043305;28;20492;-47
2023/01/17 06:59:17;;;;;;;17.23;9.55;;;4.20;77.40;;;;;;5044905;28;20071;-49
2023/01/17 07:01:44;;;;;;;17.13;8.52;;;4.20;77.40;;;;;;5040316;28;20045;-52
2023/01/17 07:04:11;;;;;;;17.02;8.60;;;4.20;77.40;;;;;;5039911;28;20047;-49
2023/01/17 07:06:40;;;;;;;13.18;7.45;;;4.20;77.50;;;;;;5040318;28;20040;-52
2023/01/17 07:09:06;;;;;;;11.52;6.88;;;4.00;77.30;;;;;;5043924;28;20048;-52
2023/01/17 07:11:33;;;;;;;14.40;8.38;;;4.10;77.40;;;;;;5043572;28;20098;-50
2023/01/17 07:14:00;;;;;;;14.05;8.00;;;4.10;77.40;;;;;;5047741;28;20047;-52
2023/01/17 07:16:26;;;;;;;14.27;7.88;;;4.10;77.40;;;;;;5044859;28;20088;-52
2023/01/17 07:18:56;;;;;;;12.13;7.53;;;4.10;77.40;;;;;;5042327;28;20053;-51
2023/01/17 07:21:23;;;;;;;14.32;8.18;;;4.10;77.50;;;;;;5045992;28;20473;-49
2023/01/17 07:23:50;;;;;;;11.82;8.10;;;4.10;77.40;;;;;;5048539;28;20033;-51
2023/01/17 07:26:17;;;;;;;11.75;7.90;;;4.00;77.40;;;;;;5039834;28;20039;-50
2023/01/17 07:28:44;;;;;;;14.27;8.32;;;4.10;77.50;;;;;;5044154;28;20548;-48
2023/01/17 07:31:10;;;;;;;15.02;8.30;;;4.10;77.50;;;;;;5048535;28;20044;-49
2023/01/17 07:33:39;;;;;;;11.50;7.65;;;4.00;77.60;;;;;;5047572;28;20056;-49
2023/01/17 07:36:08;;;;;;;14.57;7.40;;;4.00;77.50;;;;;;5050264;28;20037;-51
2023/01/17 07:38:35;;;;;;;11.02;7.40;;;4.00;77.50;;;;;;5051228;28;20136;-52
2023/01/17 07:41:02;;;;;;;14.85;7.22;;;4.00;77.60;;;;;;5046102;28;20077;-52
2023/01/17 07:43:28;;;;;;;12.98;7.72;;;4.00;77.60;;;;;;5045470;28;20394;-49
2023/01/17 07:45:55;;;;;;;13.75;7.35;;;4.00;77.50;;;;;;5049105;28;20055;-49
2023/01/17 07:48:24;;;;;;;12.05;7.65;;;4.00;77.60;;;;;;5049598;28;20120;-52
2023/01/17 07:50:55;;;;;;;12.38;7.70;;;4.00;77.60;;;;;;5051552;28;20070;-49
2023/01/17 07:53:27;;;;;;;11.05;7.63;;;4.00;77.60;;;;;;5044241;28;20044;-49
2023/01/17 07:55:58;;;;;;;18.05;7.88;;;4.00;77.60;;;;;;5051341;28;20037;-49
2023/01/17 07:58:25;;;;;;;13.82;7.72;;;4.00;77.60;;;;;;5049711;28;20497;-49
2023/01/17 08:00:52;;;;;;;12.63;7.20;;;4.00;77.60;;;;;;5046511;28;20034;-49
2023/01/17 08:03:19;;;;;;;12.00;7.88;;;4.00;77.60;;;;;;5051322;28;20045;-48
2023/01/17 08:05:54;;;;;;;12.57;7.03;;;4.00;77.70;;;;;;5048648;28;20041;-51
2023/01/17 08:08:21;;;;;;;12.98;7.63;;;4.00;77.70;;;;;;5048494;28;20059;-52
2023/01/17 08:10:48;;;;;;;11.93;7.20;;;4.00;77.70;;;;;;5051050;28;20099;-48
2023/01/17 08:13:15;;;;;;;15.40;8.18;;;4.00;77.70;;;;;;5045126;28;20033;-49
2023/01/17 08:15:42;;;;;;;13.05;7.75;;;4.00;77.80;;;;;;5046358;28;20111;-49
2023/01/17 08:18:09;;;;;;;11.38;7.45;;;4.00;77.90;;;;;;5046411;28;20061;-48
2023/01/17 08:20:36;;;;;;;10.65;6.97;;;4.10;78.00;;;;;;5050234;28;20493;-51
2023/01/17 08:23:02;;;;;;;12.88;7.60;;;4.10;78.10;;;;;;5041100;28;20405;-51
2023/01/17 08:25:29;;;;;;;12.82;7.93;;;4.10;78.20;;;;;;5050060;28;20037;-50
2023/01/17 08:27:56;;;;;;;12.60;7.38;;;4.10;78.30;;;;;;5049849;28;20485;-48
2023/01/17 08:30:24;;;;;;;14.85;7.43;;;4.10;78.40;;;;;;5043344;28;20111;-50
2023/01/17 08:32:51;;;;;;;13.60;7.47;;;4.10;78.40;;;;;;5050705;28;20048;-50
2023/01/17 08:35:18;;;;;;;12.38;6.95;;;4.10;78.40;;;;;;5043436;28;20512;-52
2023/01/17 08:37:47;;;;;;;12.82;7.70;;;4.20;78.50;;;;;;5040028;28;20047;-51
2023/01/17 08:40:16;;;;;;;14.15;7.63;;;4.20;78.60;;;;;;5032768;28;20127;-51
2023/01/17 08:42:43;;;;;;;16.08;7.22;;;4.20;78.70;;;;;;5043940;28;20056;-52
2023/01/17 08:45:13;;;;;;;12.05;6.95;;;4.30;78.80;;;;;;5052041;28;20091;-52
2023/01/17 08:47:42;;;;;;;10.25;6.90;;;4.30;78.90;;;;;;5050402;28;20047;-52
2023/01/17 08:50:10;;;;;;;11.13;7.22;;;4.40;79.00;;;;;;5049626;28;20041;-47
2023/01/17 08:52:39;;;;;;;11.63;7.03;;;4.40;79.00;;;;;;5045693;28;20106;-49
2023/01/17 08:55:08;;;;;;;11.30;6.68;;;4.40;79.00;;;;;;5050216;28;20040;-48
2023/01/17 08:57:35;;;;;;;12.32;6.90;;;4.50;79.00;;;;;;5050028;28;20400;-48
2023/01/17 09:00:02;;;;;;;17.02;7.32;;;4.50;78.90;;;;;;5046406;28;20051;-52
2023/01/17 09:02:29;;;;;;;10.82;7.18;;;4.60;78.90;;;;;;5045182;28;20064;-47
2023/01/17 09:04:56;;;;;;;16.58;7.95;;;4.60;78.80;;;;;;5049763;28;20404;-49
2023/01/17 09:07:25;;;;;;;9.23;6.97;;;4.60;78.70;;;;;;5049300;28;20044;-49
2023/01/17 09:09:52;;;;;;;16.83;8.35;;;4.70;78.60;;;;;;5046802;28;20500;-49
2023/01/17 09:12:21;;;;;;;11.23;6.32;;;4.70;78.50;;;;;;5049374;28;20116;-52
2023/01/17 09:14:47;;;;;;;10.65;6.63;;;4.70;78.40;;;;;;5049967;28;20041;-50
2023/01/17 09:17:15;;;;;;;12.38;6.78;;;4.70;78.30;;;;;;5047363;28;20052;-49
2023/01/17 09:19:44;;;;;;;12.27;6.72;;;4.70;78.20;;;;;;5046157;28;20505;-50
2023/01/17 09:22:14;;;;;;;10.88;6.25;;;4.70;78.10;;;;;;5044607;28;20401;-48
2023/01/17 09:24:41;;;;;;;12.80;7.43;;;4.70;78.10;;;;;;5050423;28;20509;-52
2023/01/17 09:27:07;;;;;;;9.68;5.93;;;4.70;78.10;;;;;;5046818;28;20037;-50
2023/01/17 09:29:34;;;;;;;11.13;6.07;;;4.70;78.10;;;;;;5040808;28;20064;-51
2023/01/17 09:32:03;;;;;;;10.35;6.68;;;4.80;78.20;;;;;;5049674;28;20045;-48
2023/01/17 09:34:30;;;;;;;13.27;6.95;;;4.80;78.10;;;;;;5049849;28;20501;-52
2023/01/17 09:36:57;;;;;;;12.43;6.38;;;4.80;78.20;;;;;;5049283;28;20037;-52
2023/01/17 09:39:24;;;;;;;10.10;6.38;;;4.80;78.30;;;;;;5043735;28;20577;-52
2023/01/17 09:41:56;;;;;;;11.18;7.20;;;4.80;78.40;;;;;;5049355;28;20040;-52
2023/01/17 09:44:50;;;;;;;14.30;7.15;;;4.80;78.50;;;;;;5049404;28;20120;-49
2023/01/17 09:47:40;;;;;;;11.45;7.07;;;4.90;78.60;;;;;;5046287;28;20111;-50
2023/01/17 09:50:27;;;;;;;12.73;7.32;;;4.90;78.60;;;;;;5046228;28;20051;-52
2023/01/17 09:53:00;;;;;;;11.20;7.63;;;4.90;78.60;;;;;;5041161;28;20040;-51
2023/01/17 09:55:38;;;;;;;13.13;7.50;;;4.90;78.40;;;;;;5046886;28;20079;-48
2023/01/17 09:58:11;;;;;;;13.43;7.97;;;5.00;78.50;;;;;;5037499;28;20040;-49
2023/01/17 10:01:02;;;;;;;15.23;7.65;;;5.00;78.40;;;;;;5050385;28;20053;-49
2023/01/17 10:03:44;;;;;;;15.38;7.95;;;5.00;78.50;;;;;;5048626;28;20045;-52
2023/01/17 10:06:15;;;;;;;11.07;7.07;;;5.00;78.20;;;;;;5046407;28;20402;-52
2023/01/17 10:08:55;;;;;;;14.83;8.30;;;5.00;78.00;;;;;;5046566;28;20047;-51
2023/01/17 10:11:52;;;;;;;13.43;8.43;;;5.10;78.10;;;;;;5048963;28;20458;-49
2023/01/17 10:14:19;;;;;;;16.85;8.85;;;5.10;77.90;;;;;;5027460;28;20041;-52
2023/01/17 10:17:07;;;;;;;16.98;8.90;;;5.00;77.70;;;;;;5039309;28;20048;-49
2023/01/17 10:19:44;;;;;;;12.57;7.93;;;5.00;77.70;;;;;;5047425;28;20044;-49
2023/01/17 10:22:42;;;;;;;16.30;7.80;;;5.00;77.80;;;;;;5048105;28;20053;-48
2023/01/17 10:25:34;;;;;;;11.90;7.07;;;5.10;77.90;;;;;;5040836;28;20041;-51
2023/01/17 10:28:16;;;;;;;8.60;6.13;;;5.10;78.00;;;;;;5039148;28;20057;-50
2023/01/17 10:31:13;;;;;;;15.07;6.63;;;5.10;78.00;;;;;;5047256;28;20525;-49
2023/01/17 10:33:54;;;;;;;10.40;6.55;;;5.10;78.10;;;;;;5028003;28;20052;-48
2023/01/17 10:36:22;;;;;;;10.02;6.53;;;5.10;78.00;;;;;;5047311;28;20045;-52
2023/01/17 10:39:03;;;;;;;10.65;6.28;;;5.10;77.90;;;;;;5047926;28;20045;-50
2023/01/17 10:41:58;;;;;;;11.50;6.53;;;5.10;78.00;;;;;;5048119;28;20119;-47
2023/01/17 10:44:52;;;;;;;9.98;5.68;;;5.10;78.20;;;;;;5033812;28;20159;-51
2023/01/17 10:47:23;;;;;;;11.65;6.18;;;5.20;78.10;;;;;;5044191;28;20154;-47
2023/01/17 10:49:52;;;;;;;15.15;7.05;;;5.20;78.10;;;;;;5041669;28;20049;-49
2023/01/17 10:52:30;;;;;;;11.50;7.13;;;5.20;78.10;;;;;;5039684;28;20037;-48
2023/01/17 10:55:20;;;;;;;10.13;5.82;;;5.20;78.10;;;;;;5039061;28;20047;-52
2023/01/17 10:57:48;;;;;;;9.80;6.20;;;5.30;78.30;;;;;;5030767;28;20543;-51
2023/01/17 11:00:31;;;;;;;10.02;6.35;;;5.30;78.00;;;;;;5048484;28;20086;-48
2023/01/17 11:03:01;;;;;;;11.68;5.95;;;5.30;78.00;;;;;;5040664;28;20056;-49
2023/01/17 11:05:30;;;;;;;9.13;5.03;;;5.30;77.80;;;;;;5052119;28;20121;-47
2023/01/17 11:07:58;;;;;;;10.10;6.18;;;5.30;77.80;;;;;;5051519;28;20128;-48
2023/01/17 11:10:44;;;;;;;10.93;5.55;;;5.40;77.90;;;;;;5049447;28;20387;-52
2023/01/17 11:13:27;;;;;;;8.85;5.53;;;5.40;77.60;;;;;;5044448;28;20598;-49
2023/01/17 11:15:59;;;;;;;12.93;5.60;;;5.40;77.60;;;;;;5039607;28;20045;-52
2023/01/17 11:18:30;;;;;;;7.78;4.15;;;5.50;77.70;;;;;;5051127;28;20474;-49
2023/01/17 11:21:22;;;;;;;9.18;5.78;;;5.50;77.70;;;;;;5043837;28;20500;-49
2023/01/17 11:23:53;;;;;;;9.95;5.07;;;5.50;77.50;;;;;;5045022;28;20036;-52
2023/01/17 11:26:30;;;;;;;10.75;5.53;;;5.50;77.60;;;;;;5043507;28;20040;-51
2023/01/17 11:29:31;;;;;;;8.48;5.05;;;5.60;77.60;;;;;;5045532;28;20045;-52
2023/01/17 11:32:30;;;;;;;8.82;5.13;;;5.60;77.40;;;;;;5047418;28;20045;-51
2023/01/17 11:35:16;;;;;;;8.68;4.60;;;5.60;77.60;;;;;;5042817;28;20593;-52
2023/01/17 11:37:58;;;;;;;9.43;4.97;;;5.70;77.40;;;;;;5050723;28;20053;-48
2023/01/17 11:40:29;;;;;;;9.32;4.93;;;5.70;77.50;;;;;;5051472;28;20110;-50
2023/01/17 11:43:17;;;;;;;7.53;5.25;;;5.70;77.50;;;;;;5051262;28;20055;-50
2023/01/17 11:45:45;;;;;;;8.52;4.68;;;5.80;77.30;;;;;;5047405;28;20456;-52
2023/01/17 11:48:15;;;;;;;8.55;5.78;;;5.90;77.20;;;;;;5033592;28;20033;-48
2023/01/17 11:50:57;;;;;;;10.85;5.57;;;5.90;76.90;;;;;;5048335;28;20040;-51
2023/01/17 11:53:37;;;;;;;9.60;5.80;;;6.00;77.20;;;;;;5047876;28;20033;-52
2023/01/17 11:56:08;;;;;;;9.73;5.47;;;6.00;75.90;;;;;;5045180;28;20047;-51
2023/01/17 11:58:40;;;;;;;10.40;5.07;;;6.00;76.00;;;;;;5045390;28;20076;-51
2023/01/17 12:01:28;;;;;;;8.93;5.07;;;6.00;75.90;;;;;;5052171;28;20061;-52
2023/01/17 12:04:22;;;;;;;8.25;5.10;;;6.00;75.70;;;;;;5050791;28;20036;-50
2023/01/17 12:06:55;;;;;;;10.25;6.10;;;6.10;74.90;;;;;;5049850;28;20072;-49
2023/01/17 12:10:08;;;;;;;8.35;5.35;;;6.10;75.50;;;;;;5040613;28;20041;-52
2023/01/17 12:16:31;;;;;;;8.48;5.28;;;6.10;75.00;;;;;;5051692;28;20041;-52
2023/01/17 12:19:11;;;;;;;9.77;5.18;;;6.10;74.70;;;;;;4946875;29;20580;-48
2023/01/17 12:21:56;;;;;;;9.38;5.10;;;6.10;74.80;;;;;;5042319;28;20129;-48
2023/01/17 12:24:23;;;;;;;6.57;4.55;;;6.10;74.50;;;;;;5050667;28;20037;-48
2023/01/17 12:27:05;;;;;;;5.68;3.35;;;6.10;74.80;;;;;;5047069;28;20084;-52
2023/01/17 12:29:47;;;;;;;11.10;4.43;;;6.10;73.80;;;;;;5048011;28;20469;-48
2023/01/17 12:32:16;;;;;;;5.78;3.42;;;6.20;74.00;;;;;;5046677;28;20040;-50
2023/01/17 12:34:59;;;;;;;7.05;4.00;;;6.10;74.20;;;;;;5048256;28;20047;-51
2023/01/17 12:37:35;;;;;;;6.47;3.92;;;6.20;74.10;;;;;;5051180;28;20045;-49
2023/01/17 12:40:17;;;;;;;9.82;3.92;;;6.20;74.10;;;;;;5039533;28;20052;-49
2023/01/17 12:43:00;;;;;;;8.25;3.70;;;6.20;74.10;;;;;;5051181;28;20386;-48
2023/01/17 12:45:35;;;;;;;8.73;4.40;;;6.20;73.50;;;;;;5047836;28;20049;-49
2023/01/17 12:48:08;;;;;;;7.13;4.40;;;6.20;73.80;;;;;;5051338;28;20047;-52
2023/01/17 12:50:55;;;;;;;10.90;4.57;;;6.30;73.90;;;;;;5051252;28;20047;-52
2023/01/17 12:53:51;;;;;;;8.27;4.55;;;6.30;74.00;;;;;;5026604;28;20049;-50
2023/01/17 12:56:32;;;;;;;7.47;3.75;;;6.30;73.00;;;;;;5044532;28;20037;-48
2023/01/17 12:59:28;;;;;;;10.73;4.70;;;6.40;73.60;;;;;;5042851;28;20047;-48
2023/01/17 13:01:58;;;;;;;8.68;3.80;;;6.40;73.60;;;;;;5042782;28;20067;-49
2023/01/17 13:04:51;;;;;;;7.20;3.85;;;6.40;74.00;;;;;;5045474;28;20079;-51
2023/01/17 13:07:43;;;;;;;9.52;3.38;;;6.50;73.50;;;;;;5011960;28;20053;-48
2023/01/17 13:10:43;;;;;;;6.50;3.90;;;6.50;72.90;;;;;;5043856;28;20047;-52
2023/01/17 13:13:21;;;;;;;11.57;4.03;;;6.50;73.00;;;;;;5034359;28;20038;-51
2023/01/17 13:15:54;;;;;;;5.18;2.92;;;6.60;72.80;;;;;;5042345;28;20037;-48
2023/01/17 13:18:24;;;;;;;7.53;2.90;;;6.60;72.40;;;;;;5049161;28;20069;-50
2023/01/17 13:21:04;;;;;;;9.68;3.13;;;6.60;72.20;;;;;;5050187;28;20056;-52
2023/01/17 13:23:54;;;;;;;8.45;3.10;;;6.60;71.50;;;;;;5042037;28;20034;-51
2023/01/17 13:26:47;;;;;;;8.00;3.17;;;6.70;70.50;;;;;;5044867;28;20045;-50
2023/01/17 13:29:36;;;;;;;6.88;4.00;;;6.80;70.80;;;;;;5042868;28;20128;-52
2023/01/17 13:32:13;;;;;;;21.02;17.45;;;6.80;70.00;;;;;;5041715;28;20040;-52
2023/01/17 13:35:13;;;;;;;8.30;7.45;;;6.80;71.20;;;;;;5046618;28;20051;-49
2023/01/17 13:37:54;;;;;;;8.45;6.47;;;6.90;69.30;;;;;;5047425;28;20047;-49
2023/01/17 13:40:39;;;;;;;10.75;4.88;;;6.90;69.90;;;;;;5049399;28;20694;-52
2023/01/17 13:43:17;;;;;;;7.38;4.25;;;6.90;70.10;;;;;;5040658;28;20040;-50
2023/01/17 13:45:55;;;;;;;7.50;4.40;;;7.00;69.70;;;;;;5047044;28;20412;-49
2023/01/17 13:48:22;;;;;;;7.05;4.00;;;7.00;69.30;;;;;;5048548;28;20048;-49
2023/01/17 13:50:54;;;;;;;13.07;5.22;;;7.00;69.50;;;;;;5045073;28;20067;-47
2023/01/17 13:53:39;;;;;;;6.00;3.42;;;6.90;69.10;;;;;;5026057;28;20115;-50
2023/01/17 13:56:28;;;;;;;6.40;3.40;;;7.10;67.90;;;;;;5043117;28;20036;-52
2023/01/17 13:59:01;;;;;;;7.85;4.50;;;7.00;68.30;;;;;;5045608;28;20049;-49
2023/01/17 14:01:30;;;;;;;7.05;4.25;;;7.10;69.50;;;;;;5045636;28;20051;-52
2023/01/17 14:03:57;;;;;;;10.18;4.47;;;7.10;70.00;;;;;;5049236;28;20044;-50
2023/01/17 14:06:34;;;;;;;5.57;4.55;;;7.00;69.60;;;;;;5032030;28;20036;-49
2023/01/17 14:09:11;;;;;;;7.82;4.70;;;7.10;69.40;;;;;;5041628;28;20055;-47
2023/01/17 14:12:30;;;;;;;7.93;5.15;;;7.00;69.10;;;;;;5044499;28;20041;-48
2023/01/17 14:15:01;;;;;;;9.18;4.07;;;7.00;69.40;;;;;;5049059;28;20049;-51
2023/01/17 14:17:45;;;;;;;8.82;4.88;;;7.00;69.90;;;;;;5049976;28;20090;-49
2023/01/17 14:20:14;;;;;;;8.57;5.20;;;7.00;69.10;;;;;;5041640;28;20045;-52
2023/01/17 14:22:50;;;;;;;7.55;4.93;;;7.00;69.60;;;;;;5049942;28;20527;-49
2023/01/17 14:25:23;;;;;;;10.15;5.20;;;7.00;70.40;;;;;;5049536;28;20033;-52
2023/01/17 14:28:21;;;;;;;6.53;5.20;;;7.00;70.60;;;;;;5043067;28;20048;-50
2023/01/17 14:30:54;;;;;;;7.07;4.97;;;7.00;71.00;;;;;;5049884;28;20048;-50
2023/01/17 14:33:33;;;;;;;8.88;5.43;;;7.10;71.40;;;;;;5050017;28;20037;-48
2023/01/17 14:36:28;;;;;;;6.60;5.53;;;7.10;71.70;;;;;;5048698;28;20098;-48
2023/01/17 14:38:57;;;;;;;11.15;6.20;;;7.20;71.90;;;;;;5040358;28;20406;-48
2023/01/17 14:41:27;;;;;;;9.98;6.32;;;7.20;71.90;;;;;;5050258;28;20059;-52
2023/01/17 14:43:59;;;;;;;10.82;7.80;;;7.20;72.00;;;;;;5049310;28;20128;-48
2023/01/17 14:46:31;;;;;;;8.50;6.05;;;7.20;71.90;;;;;;5047474;28;20037;-47
2023/01/17 14:49:01;;;;;;;11.57;5.72;;;7.20;71.80;;;;;;5042987;28;20040;-52